Portada
METAR-TAF:

METAR-TAF

Aeroports :

Bombai, Índia

latitud: 19-05-53N, longitud: 072-50-02E, altitud: 4 m

Observació

L'informe es va fer fa 4 hores i 26 minuts, a les 12:30 UTC
Vent 7 kt del Oest
Temperatura 31°C
Humitat 75%
Pressió 1004 hPa
Visibilitat: 4000 m
Escasses núvols a una alçada de 2000 ft
calitja

METAR: VAJJ 081230Z 28007KT 4000 HZ FEW020 31/26 Q1004 NOSIG

Hora: 22:26 (16:56 UTC)


TAF: manca

Observacions i pronòstics meteorològics de més de 4000 aeroports (METAR i TAF).

Les estacions disponibles són els punts grocs i vermells al mapa.

Posi el ratolí al punt desitjat per veure el nom de l'estació.

Feu clic per veure les observacions i els pronòstics meteorològics.

Per canviar el mapa: feu clic els botons verds amb una creu de color negre per apropar; al botó verd amb un guió per allunyar la imatge; o en les fletxes verdes per a mapes adjacents.


METAR-TAF: